Huinan, China
Current Conditions -  °F | °C
As of 4:30 AM on Friday 24 Oct 2014 (Local Time) from ZSPD Reporting Station
Clear Clear  
Wind Chill: 55°   Ceiling: Unl
Heat Index: 55°   Visibility: 6mi
Dew Point: 52°   Wind: 2mph
Humidity: 88%   Direction: 140°SE
Pressure: 30.09"   Gusts: NA
Location:  31.05°N, 121.75°E
Report Text: ZSPD 232030Z 14001MPS CAVOK 13/11 Q1019 NOSIG
Loading
Personal Weather Stations






























Interactive Weather Map
Tropical Storm Tracking
New forecast layout! Learn more

10-Day Weather Forecast

Advertisements
Track Severe Weather on mobile